Opotiki Weather Station Historical Data
Version 3.4b - 01-Dec-2017
Daily Summary for December 7, 2018 Units:  Metric    English   Both
« Previous Day
Next Day »
Daily Weekly Monthly Yearly Custom
  High: Low: Average:
Temperature: 28.7 °C 5.8 °C 16.7 °C
Dew Point: 12.4 °C 4.4 °C 7.4 °C
Humidity: 97% 25% 61%
Wind Speed: 7.2km/h 0.0km/h 1.3km/h
Wind Gust: 14.8km/h - -
Wind- - WSW
Pressure: 1022.6 hPa 1015.5 hPa -
Precipitation: 0.0 mm    
Historical Graphs
 
 
Tabular Data for December 7, 2018
Time Temperature Dew Point Pressure Wind Wind Speed Wind Gust Humidity Rain Rate (Hrly) Rain Day
00:04 11.6 °C 10.5 °C 1015.6 hPa Calm   2.6 km/h 93% 0.0 mm 0.0mm
00:08 11.5 °C 10.4 °C 1015.5 hPa Calm   2.6 km/h 93% 0.0 mm 0.0mm
00:14 11.4 °C 10.2 °C 1015.6 hPa Calm   2.6 km/h 92% 0.0 mm 0.0mm
00:18 11.3 °C 10.1 °C 1015.6 hPa Calm   2.6 km/h 92% 0.0 mm 0.0mm
00:24 11.1 °C 9.7 °C 1015.8 hPa Calm   2.6 km/h 91% 0.0 mm 0.0mm
00:28 10.9 °C 9.5 °C 1015.8 hPa Calm   2.6 km/h 91% 0.0 mm 0.0mm
00:34 10.8 °C 9.4 °C 1015.9 hPa Calm   2.6 km/h 91% 0.0 mm 0.0mm
00:38 10.6 °C 9.1 °C 1015.7 hPa Calm   2.6 km/h 90% 0.0 mm 0.0mm
00:44 10.5 °C 8.9 °C 1015.8 hPa Calm   1.1 km/h 90% 0.0 mm 0.0mm
00:48 10.5 °C 8.9 °C 1016.0 hPa Calm   2.6 km/h 90% 0.0 mm 0.0mm
00:54 10.5 °C 8.8 °C 1015.9 hPa Calm   2.6 km/h 89% 0.0 mm 0.0mm
00:58 10.5 °C 8.8 °C 1016.0 hPa Calm   2.6 km/h 89% 0.0 mm 0.0mm
01:04 10.4 °C 8.5 °C 1015.9 hPa Calm   2.6 km/h 88% 0.0 mm 0.0mm
01:08 10.4 °C 8.5 °C 1016.0 hPa Calm   2.6 km/h 88% 0.0 mm 0.0mm
01:14 10.4 °C 8.3 °C 1016.0 hPa West 2.6 km/h 3.5 km/h 87% 0.0 mm 0.0mm
01:18 10.4 °C 8.3 °C 1016.1 hPa Calm   3.5 km/h 87% 0.0 mm 0.0mm
01:24 10.3 °C 8.1 °C 1016.1 hPa Calm   3.5 km/h 86% 0.0 mm 0.0mm
01:28 10.4 °C 8.2 °C 1016.0 hPa WSW 1.1 km/h 3.5 km/h 86% 0.0 mm 0.0mm
01:34 10.7 °C 8.3 °C 1016.2 hPa WSW 1.1 km/h 5.0 km/h 85% 0.0 mm 0.0mm
01:38 10.7 °C 8.1 °C 1016.2 hPa Calm   5.0 km/h 84% 0.0 mm 0.0mm
01:44 10.8 °C 8.2 °C 1016.1 hPa Calm   2.6 km/h 84% 0.0 mm 0.0mm
01:48 10.6 °C 7.8 °C 1016.2 hPa Calm   2.6 km/h 83% 0.0 mm 0.0mm
01:54 10.3 °C 7.6 °C 1016.2 hPa Calm   2.6 km/h 83% 0.0 mm 0.0mm
01:58 10.1 °C 7.2 °C 1016.2 hPa Calm   1.1 km/h 82% 0.0 mm 0.0mm
02:04 9.8 °C 7.1 °C 1016.1 hPa Calm   2.6 km/h 83% 0.0 mm 0.0mm
02:08 9.6 °C 6.8 °C 1016.1 hPa Calm   2.6 km/h 83% 0.0 mm 0.0mm
02:14 9.3 °C 6.6 °C 1016.0 hPa Calm   1.1 km/h 83% 0.0 mm 0.0mm
02:18 9.1 °C 6.6 °C 1016.0 hPa Calm   1.1 km/h 84% 0.0 mm 0.0mm
02:24 9.0 °C 6.4 °C 1016.0 hPa Calm   1.1 km/h 84% 0.0 mm 0.0mm
02:28 8.8 °C 6.4 °C 1016.0 hPa Calm   1.1 km/h 85% 0.0 mm 0.0mm
02:34 8.7 °C 6.3 °C 1016.2 hPa Calm   1.1 km/h 85% 0.0 mm 0.0mm
02:38 8.5 °C 6.3 °C 1016.2 hPa Calm   1.1 km/h 86% 0.0 mm 0.0mm
02:44 8.4 °C 6.2 °C 1016.3 hPa Calm   1.1 km/h 86% 0.0 mm 0.0mm
02:48 8.4 °C 6.2 °C 1016.3 hPa Calm   1.1 km/h 86% 0.0 mm 0.0mm
02:54 8.4 °C 6.4 °C 1016.4 hPa Calm   1.1 km/h 87% 0.0 mm 0.0mm
02:58 8.4 °C 6.4 °C 1016.5 hPa Calm   1.1 km/h 87% 0.0 mm 0.0mm
03:04 8.4 °C 6.4 °C 1016.5 hPa Calm   1.1 km/h 87% 0.0 mm 0.0mm
03:08 8.4 °C 6.4 °C 1016.4 hPa Calm   1.1 km/h 87% 0.0 mm 0.0mm
03:14 8.2 °C 6.3 °C 1016.5 hPa Calm     88% 0.0 mm 0.0mm
03:18 8.0 °C 6.1 °C 1016.5 hPa Calm     88% 0.0 mm 0.0mm
03:24 7.7 °C 5.8 °C 1016.4 hPa Calm     88% 0.0 mm 0.0mm
03:28 7.6 °C 5.7 °C 1016.6 hPa Calm     88% 0.0 mm 0.0mm
03:34 7.3 °C 5.4 °C 1016.6 hPa Calm     88% 0.0 mm 0.0mm
03:38 7.3 °C 5.6 °C 1016.8 hPa Calm     89% 0.0 mm 0.0mm
03:44 7.2 °C 5.5 °C 1016.7 hPa Calm     89% 0.0 mm 0.0mm
03:48 7.2 °C 5.5 °C 1016.9 hPa Calm     89% 0.0 mm 0.0mm
03:54 7.0 °C 5.3 °C 1017.0 hPa Calm     89% 0.0 mm 0.0mm
03:58 6.9 °C 5.6 °C 1017.0 hPa Calm     91% 0.0 mm 0.0mm
04:04 6.8 °C 5.4 °C 1016.9 hPa Calm   1.1 km/h 91% 0.0 mm 0.0mm
04:08 6.9 °C 5.6 °C 1017.1 hPa Calm   1.1 km/h 91% 0.0 mm 0.0mm
04:14 6.5 °C 5.1 °C 1017.4 hPa Calm     91% 0.0 mm 0.0mm
04:18 6.5 °C 5.1 °C 1017.2 hPa Calm     91% 0.0 mm 0.0mm
04:24 6.6 °C 5.4 °C 1017.3 hPa Calm     92% 0.0 mm 0.0mm
04:28 6.6 °C 5.4 °C 1017.4 hPa Calm     92% 0.0 mm 0.0mm
04:34 6.7 °C 5.5 °C 1017.4 hPa Calm   1.1 km/h 92% 0.0 mm 0.0mm
04:38 6.7 °C 5.5 °C 1017.4 hPa Calm   2.6 km/h 92% 0.0 mm 0.0mm
04:44 6.7 °C 5.7 °C 1017.4 hPa Calm   2.6 km/h 93% 0.0 mm 0.0mm
04:48 6.6 °C 5.6 °C 1017.5 hPa Calm     93% 0.0 mm 0.0mm
04:54 6.4 °C 5.3 °C 1017.5 hPa Calm     93% 0.0 mm 0.0mm
04:58 6.3 °C 5.3 °C 1017.6 hPa Calm     93% 0.0 mm 0.0mm
05:04 6.2 °C 5.2 °C 1017.6 hPa Calm     93% 0.0 mm 0.0mm
05:08 6.2 °C 5.2 °C 1017.8 hPa Calm   2.6 km/h 93% 0.0 mm 0.0mm
05:14 6.3 °C 5.4 °C 1017.9 hPa Calm   2.6 km/h 94% 0.0 mm 0.0mm
05:18 6.2 °C 5.3 °C 1017.9 hPa Calm   2.6 km/h 94% 0.0 mm 0.0mm
05:24 6.1 °C 5.2 °C 1017.9 hPa Calm     94% 0.0 mm 0.0mm
05:28 6.0 °C 5.1 °C 1017.9 hPa Calm     94% 0.0 mm 0.0mm
05:34 5.8 °C 5.1 °C 1018.1 hPa Calm   2.6 km/h 95% 0.0 mm 0.0mm
05:38 6.0 °C 5.1 °C 1018.1 hPa Calm   2.6 km/h 94% 0.0 mm 0.0mm
05:44 6.0 °C 5.1 °C 1018.2 hPa Calm   1.1 km/h 94% 0.0 mm 0.0mm
05:48 6.0 °C 5.1 °C 1018.2 hPa Calm     94% 0.0 mm 0.0mm
05:54 6.0 °C 5.3 °C 1018.3 hPa Calm   1.1 km/h 95% 0.0 mm 0.0mm
05:58 6.2 °C 5.4 °C 1018.3 hPa Calm   1.1 km/h 95% 0.0 mm 0.0mm
06:04 6.2 °C 5.4 °C 1018.4 hPa Calm   1.1 km/h 95% 0.0 mm 0.0mm
06:08 6.1 °C 5.3 °C 1018.4 hPa Calm     95% 0.0 mm 0.0mm
06:14 6.2 °C 5.4 °C 1018.4 hPa Calm     95% 0.0 mm 0.0mm
06:18 6.2 °C 5.4 °C 1018.5 hPa Calm     95% 0.0 mm 0.0mm
06:24 6.3 °C 5.6 °C 1018.6 hPa Calm     95% 0.0 mm 0.0mm
06:28 6.4 °C 5.8 °C 1018.7 hPa Calm     96% 0.0 mm 0.0mm
06:34 6.6 °C 6.0 °C 1018.9 hPa Calm     96% 0.0 mm 0.0mm
06:38 6.8 °C 6.2 °C 1019.0 hPa Calm     96% 0.0 mm 0.0mm
06:44 7.0 °C 6.4 °C 1019.0 hPa Calm     96% 0.0 mm 0.0mm
06:48 7.1 °C 6.5 °C 1019.0 hPa Calm     96% 0.0 mm 0.0mm
06:54 7.3 °C 6.7 °C 1019.0 hPa Calm     96% 0.0 mm 0.0mm
06:58 7.5 °C 6.9 °C 1019.2 hPa Calm     96% 0.0 mm 0.0mm
07:04 7.7 °C 7.3 °C 1019.3 hPa Calm     97% 0.0 mm 0.0mm
07:08 7.9 °C 7.4 °C 1019.3 hPa Calm     97% 0.0 mm 0.0mm
07:14 8.3 °C 7.7 °C 1019.4 hPa Calm     96% 0.0 mm 0.0mm
07:18 8.6 °C 8.0 °C 1019.4 hPa Calm   1.1 km/h 96% 0.0 mm 0.0mm
07:24 8.9 °C 8.4 °C 1019.6 hPa Calm   1.1 km/h 97% 0.0 mm 0.0mm
07:28 9.2 °C 8.6 °C 1019.5 hPa Calm   2.6 km/h 96% 0.0 mm 0.0mm
07:34 10.0 °C 9.2 °C 1019.5 hPa WNW 1.1 km/h 2.6 km/h 95% 0.0 mm 0.0mm
07:38 11.1 °C 10.3 °C 1019.6 hPa WNW 1.1 km/h 3.5 km/h 95% 0.0 mm 0.0mm
07:44 12.6 °C 11.8 °C 1019.4 hPa WNW 1.1 km/h 3.5 km/h 95% 0.0 mm 0.0mm
07:48 13.4 °C 12.4 °C 1019.5 hPa WNW 2.6 km/h 5.0 km/h 94% 0.0 mm 0.0mm
07:54 14.4 °C 12.4 °C 1019.6 hPa NW 1.1 km/h 5.0 km/h 88% 0.0 mm 0.0mm
07:58 15.1 °C 11.9 °C 1019.5 hPa Calm   5.0 km/h 81% 0.0 mm 0.0mm
08:04 15.8 °C 11.0 °C 1019.5 hPa West 1.1 km/h 5.0 km/h 73% 0.0 mm 0.0mm
08:08 16.3 °C 10.4 °C 1019.3 hPa Calm   5.0 km/h 68% 0.0 mm 0.0mm
08:14 16.9 °C 9.1 °C 1019.7 hPa West 1.1 km/h 5.0 km/h 60% 0.0 mm 0.0mm
08:18 17.1 °C 8.8 °C 1019.7 hPa Calm   5.0 km/h 58% 0.0 mm 0.0mm
08:24 18.0 °C 9.4 °C 1019.7 hPa WNW 1.1 km/h 5.0 km/h 57% 0.0 mm 0.0mm
08:28 18.4 °C 8.4 °C 1019.7 hPa WNW 1.1 km/h 7.2 km/h 52% 0.0 mm 0.0mm
08:34 18.6 °C 8.8 °C 1019.7 hPa WNW 1.1 km/h 7.2 km/h 53% 0.0 mm 0.0mm
08:38 18.9 °C 8.8 °C 1019.8 hPa West 1.1 km/h 5.0 km/h 52% 0.0 mm 0.0mm
08:44 19.3 °C 7.4 °C 1019.7 hPa Calm   5.0 km/h 46% 0.0 mm 0.0mm
08:48 19.7 °C 8.1 °C 1019.6 hPa SW 2.6 km/h 6.1 km/h 47% 0.0 mm 0.0mm
08:54 20.0 °C 7.7 °C 1020.0 hPa Calm   6.1 km/h 45% 0.0 mm 0.0mm
08:58 20.6 °C 8.6 °C 1019.9 hPa WNW 1.1 km/h 6.1 km/h 46% 0.0 mm 0.0mm
09:04 20.9 °C 7.5 °C 1019.8 hPa Calm   5.0 km/h 42% 0.0 mm 0.0mm
09:08 21.0 °C 7.3 °C 1019.9 hPa West 1.1 km/h 6.1 km/h 41% 0.0 mm 0.0mm
09:14 20.7 °C 6.6 °C 1019.9 hPa SW 1.1 km/h 8.7 km/h 40% 0.0 mm 0.0mm
09:18 20.7 °C 7.0 °C 1019.9 hPa WSW 2.6 km/h 8.7 km/h 41% 0.0 mm 0.0mm
09:24 20.9 °C 7.5 °C 1019.7 hPa ESE 2.6 km/h 6.1 km/h 42% 0.0 mm 0.0mm
09:28 20.9 °C 7.2 °C 1019.9 hPa NNE 2.6 km/h 6.1 km/h 41% 0.0 mm 0.0mm
09:34 21.2 °C 7.8 °C 1019.7 hPa West 1.1 km/h 9.7 km/h 42% 0.0 mm 0.0mm
09:38 21.2 °C 6.7 °C 1019.6 hPa SW 2.6 km/h 9.7 km/h 39% 0.0 mm 0.0mm
09:44 21.6 °C 7.4 °C 1019.7 hPa South 3.5 km/h 7.2 km/h 40% 0.0 mm 0.0mm
09:48 21.7 °C 6.8 °C 1019.7 hPa Calm   7.2 km/h 38% 0.0 mm 0.0mm
09:54 22.0 °C 7.1 °C 1019.6 hPa Calm   7.2 km/h 38% 0.0 mm 0.0mm
09:58 22.4 °C 7.8 °C 1019.8 hPa SW 1.1 km/h 7.2 km/h 39% 0.0 mm 0.0mm
10:04 22.7 °C 7.3 °C 1019.8 hPa SSE 2.6 km/h 3.5 km/h 37% 0.0 mm 0.0mm
10:08 22.4 °C 5.8 °C 1020.0 hPa SE 2.6 km/h 8.7 km/h 34% 0.0 mm 0.0mm
10:14 21.4 °C 5.7 °C 1019.9 hPa NW 2.6 km/h 8.7 km/h 36% 0.0 mm 0.0mm
10:18 21.4 °C 5.7 °C 1019.8 hPa East 3.5 km/h 7.2 km/h 36% 0.0 mm 0.0mm
10:24 21.7 °C 6.0 °C 1019.8 hPa SE 2.6 km/h 7.2 km/h 36% 0.0 mm 0.0mm
10:28 21.9 °C 7.3 °C 1019.8 hPa West 3.5 km/h 7.2 km/h 39% 0.0 mm 0.0mm
10:34 22.5 °C 5.9 °C 1019.6 hPa West 1.1 km/h 9.7 km/h 34% 0.0 mm 0.0mm
10:38 22.5 °C 5.4 °C 1019.6 hPa WNW 2.6 km/h 9.7 km/h 33% 0.0 mm 0.0mm
10:44 22.5 °C 7.1 °C 1019.6 hPa West 2.6 km/h 7.2 km/h 37% 0.0 mm 0.0mm
10:48 22.7 °C 6.9 °C 1019.6 hPa SW 3.5 km/h 7.2 km/h 36% 0.0 mm 0.0mm
10:54 23.0 °C 6.7 °C 1019.7 hPa West 1.1 km/h 6.1 km/h 35% 0.0 mm 0.0mm
10:58 23.1 °C 6.4 °C 1019.5 hPa West 1.1 km/h 8.7 km/h 34% 0.0 mm 0.0mm
11:04 23.3 °C 7.8 °C 1019.6 hPa West 2.6 km/h 8.7 km/h 37% 0.0 mm 0.0mm
11:08 23.7 °C 6.5 °C 1019.5 hPa ESE 2.6 km/h 12.2 km/h 33% 0.0 mm 0.0mm
11:14 23.8 °C 7.4 °C 1019.5 hPa ESE 3.5 km/h 12.2 km/h 35% 0.0 mm 0.0mm
11:18 23.8 °C 7.0 °C 1019.5 hPa NNE 2.6 km/h 13.4 km/h 34% 0.0 mm 0.0mm
11:24 24.4 °C 7.6 °C 1019.5 hPa NW 2.6 km/h 13.4 km/h 34% 0.0 mm 0.0mm
11:28 24.8 °C 8.3 °C 1019.5 hPa WSW 1.1 km/h 5.0 km/h 35% 0.0 mm 0.0mm
11:34 24.1 °C 6.8 °C 1019.7 hPa WSW 2.6 km/h 7.2 km/h 33% 0.0 mm 0.0mm
11:38 23.6 °C 6.8 °C 1019.6 hPa West 1.1 km/h 7.2 km/h 34% 0.0 mm 0.0mm
11:44 23.3 °C 7.8 °C 1019.7 hPa WSW 2.6 km/h 9.7 km/h 37% 0.0 mm 0.0mm
11:48 23.2 °C 6.9 °C 1019.5 hPa West 1.1 km/h 9.7 km/h 35% 0.0 mm 0.0mm
11:54 24.1 °C 8.9 °C 1019.7 hPa WSW 1.1 km/h 5.0 km/h 38% 0.0 mm 0.0mm
11:58 24.4 °C 6.7 °C 1019.5 hPa SW 3.5 km/h 6.1 km/h 32% 0.0 mm 0.0mm
12:04 24.6 °C 7.3 °C 1019.5 hPa South 1.1 km/h 6.1 km/h 33% 0.0 mm 0.0mm
12:08 24.4 °C 6.2 °C 1019.5 hPa SSE 1.1 km/h 11.1 km/h 31% 0.0 mm 0.0mm
12:14 24.4 °C 6.7 °C 1019.3 hPa NNE 1.1 km/h 11.1 km/h 32% 0.0 mm 0.0mm
12:18 24.6 °C 8.2 °C 1019.3 hPa NNW 3.5 km/h 9.7 km/h 35% 0.0 mm 0.0mm
12:24 24.3 °C 6.6 °C 1019.3 hPa West 2.6 km/h 11.1 km/h 32% 0.0 mm 0.0mm
12:28 24.4 °C 6.7 °C 1019.1 hPa North 3.5 km/h 11.1 km/h 32% 0.0 mm 0.0mm
12:34 24.5 °C 6.7 °C 1019.5 hPa ENE 1.1 km/h 8.7 km/h 32% 0.0 mm 0.0mm
12:38 24.8 °C 7.0 °C 1019.4 hPa WSW 1.1 km/h 6.1 km/h 32% 0.0 mm 0.0mm
12:44 25.4 °C 7.5 °C 1019.4 hPa NW 2.6 km/h 6.1 km/h 32% 0.0 mm 0.0mm
12:48 25.7 °C 8.2 °C 1019.5 hPa NW 3.5 km/h 8.7 km/h 33% 0.0 mm 0.0mm
12:54 25.7 °C 6.8 °C 1019.3 hPa SW 2.6 km/h 8.7 km/h 30% 0.0 mm 0.0mm
12:58 25.6 °C 8.2 °C 1019.5 hPa West 2.6 km/h 8.7 km/h 33% 0.0 mm 0.0mm
13:04 25.7 °C 7.3 °C 1019.4 hPa West 3.5 km/h 6.1 km/h 31% 0.0 mm 0.0mm
13:08 26.3 °C 7.8 °C 1019.7 hPa WSW 2.6 km/h 6.1 km/h 31% 0.0 mm 0.0mm
13:14 26.4 °C 5.9 °C 1019.6 hPa Calm   8.7 km/h 27% 0.0 mm 0.0mm
13:18 26.6 °C 7.6 °C 1019.5 hPa West 1.1 km/h 8.7 km/h 30% 0.0 mm 0.0mm
13:24 26.6 °C 5.6 °C 1019.5 hPa NNE 1.1 km/h 7.2 km/h 26% 0.0 mm 0.0mm
13:28 26.4 °C 7.9 °C 1019.8 hPa NNW 2.6 km/h 7.2 km/h 31% 0.0 mm 0.0mm
13:34 26.0 °C 7.1 °C 1019.6 hPa NW 1.1 km/h 5.0 km/h 30% 0.0 mm 0.0mm
13:38 26.1 °C 5.7 °C 1019.4 hPa West 1.1 km/h 6.1 km/h 27% 0.0 mm 0.0mm
13:44 26.7 °C 7.7 °C 1019.4 hPa SE 1.1 km/h 11.1 km/h 30% 0.0 mm 0.0mm
13:48 26.6 °C 7.1 °C 1019.3 hPa ESE 3.5 km/h 11.1 km/h 29% 0.0 mm 0.0mm
13:54 26.1 °C 7.2 °C 1019.4 hPa West 5.0 km/h 11.1 km/h 30% 0.0 mm 0.0mm
13:58 25.6 °C 7.2 °C 1019.2 hPa NNW 3.5 km/h 14.8 km/h 31% 0.0 mm 0.0mm
14:04 25.3 °C 6.5 °C 1019.1 hPa NE 6.1 km/h 14.8 km/h 30% 0.0 mm 0.0mm
14:08 25.1 °C 6.3 °C 1019.3 hPa NE 2.6 km/h 13.4 km/h 30% 0.0 mm 0.0mm
14:14 25.5 °C 7.2 °C 1019.2 hPa SSW 2.6 km/h 13.4 km/h 31% 0.0 mm 0.0mm
14:18 25.3 °C 7.4 °C 1019.2 hPa SSW 5.0 km/h 13.4 km/h 32% 0.0 mm 0.0mm
14:24 25.1 °C 6.3 °C 1019.2 hPa SSE 2.6 km/h 8.7 km/h 30% 0.0 mm 0.0mm
14:28 25.3 °C 6.5 °C 1019.2 hPa South 1.1 km/h 8.7 km/h 30% 0.0 mm 0.0mm
14:34 25.7 °C 7.3 °C 1019.2 hPa South 2.6 km/h 7.2 km/h 31% 0.0 mm 0.0mm
14:38 26.1 °C 6.7 °C 1019.0 hPa SW 2.6 km/h 7.2 km/h 29% 0.0 mm 0.0mm
14:44 26.1 °C 6.7 °C 1019.1 hPa West 1.1 km/h 7.2 km/h 29% 0.0 mm 0.0mm
14:48 26.7 °C 7.2 °C 1019.0 hPa WNW 2.6 km/h 7.2 km/h 29% 0.0 mm 0.0mm
14:54 27.9 °C 7.7 °C 1018.9 hPa SE 2.6 km/h 6.1 km/h 28% 0.0 mm 0.0mm
14:58 28.0 °C 7.3 °C 1019.0 hPa South 3.5 km/h 12.2 km/h 27% 0.0 mm 0.0mm
15:04 27.2 °C 6.1 °C 1019.1 hPa South 3.5 km/h 12.2 km/h 26% 0.0 mm 0.0mm
15:08 27.2 °C 6.1 °C 1018.9 hPa South 2.6 km/h 8.7 km/h 26% 0.0 mm 0.0mm
15:14 28.2 °C 9.0 °C 1018.8 hPa East 1.1 km/h 8.7 km/h 30% 0.0 mm 0.0mm
15:18 28.7 °C 7.9 °C 1019.0 hPa SE 1.1 km/h 8.7 km/h 27% 0.0 mm 0.0mm
15:24 27.4 °C 5.7 °C 1018.9 hPa SSE 3.5 km/h 8.7 km/h 25% 0.0 mm 0.0mm
15:28 26.1 °C 5.7 °C 1019.0 hPa Calm   8.7 km/h 27% 0.0 mm 0.0mm
15:34 24.6 °C 6.8 °C 1018.9 hPa SSW 1.1 km/h 12.2 km/h 32% 0.0 mm 0.0mm
15:38 24.2 °C 6.5 °C 1019.0 hPa WNW 1.1 km/h 12.2 km/h 32% 0.0 mm 0.0mm
15:44 23.9 °C 6.7 °C 1019.0 hPa NW 2.6 km/h 6.1 km/h 33% 0.0 mm 0.0mm
15:48 22.9 °C 4.4 °C 1018.9 hPa NW 2.6 km/h 9.7 km/h 30% 0.0 mm 0.0mm
15:54 24.3 °C 9.1 °C 1018.9 hPa NW 7.2 km/h 11.1 km/h 38% 0.0 mm 0.0mm
15:58 23.7 °C 7.3 °C 1018.8 hPa West 3.5 km/h 11.1 km/h 35% 0.0 mm 0.0mm
16:04 25.3 °C 7.4 °C 1018.8 hPa SW 3.5 km/h 11.1 km/h 32% 0.0 mm 0.0mm
16:08 25.3 °C 6.5 °C 1018.8 hPa West 3.5 km/h 12.2 km/h 30% 0.0 mm 0.0mm
16:14 24.6 °C 6.4 °C 1019.1 hPa NNW 3.5 km/h 12.2 km/h 31% 0.0 mm 0.0mm
16:18 23.5 °C 6.7 °C 1019.1 hPa NW 1.1 km/h 8.7 km/h 34% 0.0 mm 0.0mm
16:24 23.4 °C 7.5 °C 1019.0 hPa WNW 3.5 km/h 11.1 km/h 36% 0.0 mm 0.0mm
16:28 24.1 °C 8.1 °C 1019.0 hPa West 2.6 km/h 11.1 km/h 36% 0.0 mm 0.0mm
16:34 25.3 °C 7.4 °C 1018.9 hPa WNW 2.6 km/h 8.7 km/h 32% 0.0 mm 0.0mm
16:38 25.8 °C 6.9 °C 1018.9 hPa North 5.0 km/h 8.7 km/h 30% 0.0 mm 0.0mm
16:44 25.8 °C 7.4 °C 1018.9 hPa NNW 1.1 km/h 8.7 km/h 31% 0.0 mm 0.0mm
16:48 26.1 °C 6.7 °C 1018.9 hPa WNW 2.6 km/h 8.7 km/h 29% 0.0 mm 0.0mm
16:54 25.8 °C 6.9 °C 1018.9 hPa WNW 5.0 km/h 8.7 km/h 30% 0.0 mm 0.0mm
16:58 25.6 °C 7.2 °C 1018.9 hPa WNW 2.6 km/h 8.7 km/h 31% 0.0 mm 0.0mm
17:04 25.6 °C 7.2 °C 1018.8 hPa WNW 1.1 km/h 8.7 km/h 31% 0.0 mm 0.0mm
17:08 25.8 °C 6.9 °C 1018.9 hPa West 5.0 km/h 9.7 km/h 30% 0.0 mm 0.0mm
17:14 25.7 °C 6.3 °C 1018.8 hPa West 5.0 km/h 9.7 km/h 29% 0.0 mm 0.0mm
17:18 25.7 °C 7.3 °C 1018.7 hPa West 2.6 km/h 8.7 km/h 31% 0.0 mm 0.0mm
17:24 25.3 °C 6.5 °C 1019.0 hPa WSW 3.5 km/h 8.7 km/h 30% 0.0 mm 0.0mm
17:28 25.3 °C 6.5 °C 1018.8 hPa West 2.6 km/h 9.7 km/h 30% 0.0 mm 0.0mm
17:34 25.8 °C 6.9 °C 1018.8 hPa NW 3.5 km/h 9.7 km/h 30% 0.0 mm 0.0mm
17:38 25.8 °C 6.9 °C 1018.8 hPa NW 3.5 km/h 8.7 km/h 30% 0.0 mm 0.0mm
17:44 25.5 °C 7.2 °C 1019.0 hPa WNW 2.6 km/h 9.7 km/h 31% 0.0 mm 0.0mm
17:48 25.2 °C 6.4 °C 1018.9 hPa WNW 6.1 km/h 9.7 km/h 30% 0.0 mm 0.0mm
17:54 25.2 °C 6.9 °C 1019.0 hPa NW 5.0 km/h 9.7 km/h 31% 0.0 mm 0.0mm
17:58 25.1 °C 6.3 °C 1019.1 hPa WNW 2.6 km/h 9.7 km/h 30% 0.0 mm 0.0mm
18:04 25.4 °C 7.1 °C 1018.9 hPa West 3.5 km/h 9.7 km/h 31% 0.0 mm 0.0mm
18:08 25.5 °C 6.7 °C 1019.1 hPa WNW 2.6 km/h 8.7 km/h 30% 0.0 mm 0.0mm
18:14 25.6 °C 5.8 °C 1019.2 hPa WNW 2.6 km/h 8.7 km/h 28% 0.0 mm 0.0mm
18:18 25.6 °C 6.8 °C 1019.2 hPa WNW 2.6 km/h 8.7 km/h 30% 0.0 mm 0.0mm
18:24 25.8 °C 6.9 °C 1019.4 hPa West 2.6 km/h 7.2 km/h 30% 0.0 mm 0.0mm
18:28 26.2 °C 7.3 °C 1019.4 hPa West 2.6 km/h 7.2 km/h 30% 0.0 mm 0.0mm
18:34 25.5 °C 7.2 °C 1019.7 hPa WNW 3.5 km/h 8.7 km/h 31% 0.0 mm 0.0mm
18:38 25.0 °C 8.1 °C 1019.6 hPa WNW 5.0 km/h 9.7 km/h 34% 0.0 mm 0.0mm
18:44 24.5 °C 8.4 °C 1019.6 hPa WNW 3.5 km/h 9.7 km/h 36% 0.0 mm 0.0mm
18:48 23.8 °C 8.7 °C 1019.8 hPa West 5.0 km/h 12.2 km/h 38% 0.0 mm 0.0mm
18:54 23.2 °C 9.2 °C 1019.3 hPa WNW 5.0 km/h 13.4 km/h 41% 0.0 mm 0.0mm
18:58 22.8 °C 8.1 °C 1019.5 hPa WNW 2.6 km/h 13.4 km/h 39% 0.0 mm 0.0mm
19:04 22.4 °C 8.2 °C 1019.1 hPa West 2.6 km/h 13.4 km/h 40% 0.0 mm 0.0mm
19:08 22.0 °C 7.8 °C 1019.9 hPa West 5.0 km/h 13.4 km/h 40% 0.0 mm 0.0mm
19:14 21.4 °C 8.3 °C 1020.1 hPa West 5.0 km/h 12.2 km/h 43% 0.0 mm 0.0mm
19:18 21.3 °C 8.2 °C 1020.0 hPa WNW 3.5 km/h 8.7 km/h 43% 0.0 mm 0.0mm
19:24 20.9 °C 8.6 °C 1020.1 hPa WNW 2.6 km/h 11.1 km/h 45% 0.0 mm 0.0mm
19:28 20.8 °C 8.8 °C 1020.0 hPa WNW 3.5 km/h 11.1 km/h 46% 0.0 mm 0.0mm
19:34 20.5 °C 8.8 °C 1020.1 hPa West 2.6 km/h 7.2 km/h 47% 0.0 mm 0.0mm
19:38 20.4 °C 9.1 °C 1020.2 hPa West 2.6 km/h 7.2 km/h 48% 0.0 mm 0.0mm
19:44 19.8 °C 8.8 °C 1020.6 hPa West 2.6 km/h 7.2 km/h 49% 0.0 mm 0.0mm
19:48 19.2 °C 8.8 °C 1020.5 hPa West 2.6 km/h 6.1 km/h 51% 0.0 mm 0.0mm
19:54 18.1 °C 8.7 °C 1020.6 hPa West 1.1 km/h 6.1 km/h 54% 0.0 mm 0.0mm
19:58 17.6 °C 8.4 °C 1020.8 hPa Calm   5.0 km/h 55% 0.0 mm 0.0mm
20:04 17.2 °C 8.6 °C 1020.8 hPa West 1.1 km/h 3.5 km/h 57% 0.0 mm 0.0mm
20:08 17.0 °C 8.4 °C 1020.9 hPa Calm   3.5 km/h 57% 0.0 mm 0.0mm
20:14 16.4 °C 8.4 °C 1020.9 hPa Calm   3.5 km/h 59% 0.0 mm 0.0mm
20:18 16.2 °C 8.2 °C 1020.9 hPa Calm   1.1 km/h 59% 0.0 mm 0.0mm
20:24 15.7 °C 8.2 °C 1020.9 hPa Calm   1.1 km/h 61% 0.0 mm 0.0mm
20:28 15.2 °C 7.7 °C 1021.0 hPa Calm     61% 0.0 mm 0.0mm
20:34 14.6 °C 7.7 °C 1020.9 hPa Calm   1.1 km/h 63% 0.0 mm 0.0mm
20:38 14.3 °C 7.6 °C 1021.0 hPa Calm   1.1 km/h 64% 0.0 mm 0.0mm
20:44 14.0 °C 7.6 °C 1021.1 hPa Calm   1.1 km/h 65% 0.0 mm 0.0mm
20:48 13.7 °C 7.7 °C 1021.3 hPa Calm     67% 0.0 mm 0.0mm
20:54 13.3 °C 7.5 °C 1021.3 hPa Calm     68% 0.0 mm 0.0mm
20:58 13.1 °C 7.6 °C 1021.5 hPa Calm     69% 0.0 mm 0.0mm
21:04 13.1 °C 7.9 °C 1021.3 hPa Calm     71% 0.0 mm 0.0mm
21:08 13.0 °C 8.1 °C 1021.5 hPa Calm     72% 0.0 mm 0.0mm
21:14 13.0 °C 8.3 °C 1021.7 hPa Calm     73% 0.0 mm 0.0mm
21:18 12.8 °C 8.1 °C 1021.6 hPa Calm     73% 0.0 mm 0.0mm
21:24 12.6 °C 8.1 °C 1021.6 hPa Calm   1.1 km/h 74% 0.0 mm 0.0mm
21:28 12.4 °C 7.9 °C 1021.6 hPa Calm   1.1 km/h 74% 0.0 mm 0.0mm
21:34 12.2 °C 7.9 °C 1022.0 hPa Calm   1.1 km/h 75% 0.0 mm 0.0mm
21:38 12.0 °C 7.9 °C 1021.9 hPa Calm   1.1 km/h 76% 0.0 mm 0.0mm
21:44 11.8 °C 8.1 °C 1022.3 hPa Calm     78% 0.0 mm 0.0mm
21:48 11.6 °C 8.1 °C 1022.1 hPa Calm     79% 0.0 mm 0.0mm
21:54 11.4 °C 7.9 °C 1022.3 hPa Calm     79% 0.0 mm 0.0mm
21:58 11.2 °C 7.7 °C 1022.2 hPa Calm   1.1 km/h 79% 0.0 mm 0.0mm
22:04 11.2 °C 7.9 °C 1022.3 hPa Calm   1.1 km/h 80% 0.0 mm 0.0mm
22:08 11.2 °C 7.9 °C 1022.3 hPa Calm   1.1 km/h 80% 0.0 mm 0.0mm
22:14 11.0 °C 7.9 °C 1022.3 hPa Calm   1.1 km/h 81% 0.0 mm 0.0mm
22:18 11.0 °C 8.1 °C 1022.5 hPa Calm   1.1 km/h 82% 0.0 mm 0.0mm
22:24 11.0 °C 8.4 °C 1022.5 hPa Calm   2.6 km/h 84% 0.0 mm 0.0mm
22:28 11.0 °C 8.4 °C 1022.4 hPa Calm   2.6 km/h 84% 0.0 mm 0.0mm
22:34 10.9 °C 8.5 °C 1022.6 hPa Calm   1.1 km/h 85% 0.0 mm 0.0mm
22:38 10.9 °C 8.5 °C 1022.4 hPa SW 1.1 km/h 2.6 km/h 85% 0.0 mm 0.0mm
22:44 11.0 °C 8.6 °C 1022.4 hPa Calm   3.5 km/h 85% 0.0 mm 0.0mm
22:48 11.2 °C 8.8 °C 1022.5 hPa WSW 1.1 km/h 6.1 km/h 85% 0.0 mm 0.0mm
22:54 11.5 °C 9.2 °C 1022.5 hPa Calm   6.1 km/h 86% 0.0 mm 0.0mm
22:58 11.5 °C 9.2 °C 1022.3 hPa Calm   6.1 km/h 86% 0.0 mm 0.0mm
23:04 11.5 °C 9.1 °C 1022.3 hPa Calm   2.6 km/h 85% 0.0 mm 0.0mm
23:08 11.4 °C 8.9 °C 1022.1 hPa Calm   1.1 km/h 85% 0.0 mm 0.0mm
23:14 11.3 °C 8.9 °C 1022.2 hPa Calm   1.1 km/h 85% 0.0 mm 0.0mm
23:18 11.2 °C 8.8 °C 1022.3 hPa Calm     85% 0.0 mm 0.0mm
23:24 11.2 °C 8.8 °C 1022.1 hPa Calm   1.1 km/h 85% 0.0 mm 0.0mm
23:28 11.2 °C 8.8 °C 1022.0 hPa Calm   1.1 km/h 85% 0.0 mm 0.0mm
23:34 11.0 °C 8.6 °C 1022.0 hPa Calm   1.1 km/h 85% 0.0 mm 0.0mm
23:38 10.9 °C 8.7 °C 1022.3 hPa Calm   1.1 km/h 86% 0.0 mm 0.0mm
23:44 10.8 °C 8.6 °C 1022.4 hPa Calm   1.1 km/h 86% 0.0 mm 0.0mm
23:48 10.7 °C 8.4 °C 1022.2 hPa Calm     86% 0.0 mm 0.0mm
23:54 10.6 °C 8.3 °C 1022.3 hPa Calm   1.1 km/h 86% 0.0 mm 0.0mm
23:58 10.6 °C 8.6 °C 1022.3 hPa Calm   1.1 km/h 87% 0.0 mm 0.0mm
Opotiki Town Weather
Compliments of Weather Underground - 2.25 mb

NZ Local Weather Forum      Cumulus Top Weather Sites      New Zealand Top40 Weather Station Sites      Flag Counter